sensor_id;sensor_type;location;lat;lon;timestamp;pressure;altitude;pressure_sealevel;temperature;humidity
75699;BME280;64313;51.018;13.742;2022-12-07T00:02:22;99512.56;;;2.86;82.66
75699;BME280;64313;51.018;13.742;2022-12-07T00:04:49;99509.25;;;2.84;82.14
75699;BME280;64313;51.018;13.742;2022-12-07T00:07:14;99503.28;;;2.81;82.47
75699;BME280;64313;51.018;13.742;2022-12-07T00:09:40;99505.78;;;2.83;82.58
75699;BME280;64313;51.018;13.742;2022-12-07T00:12:06;99501.47;;;2.82;82.39
75699;BME280;64313;51.018;13.742;2022-12-07T00:14:32;99499.97;;;2.79;82.23
75699;BME280;64313;51.018;13.742;2022-12-07T00:16:57;99493.84;;;2.79;82.63
75699;BME280;64313;51.018;13.742;2022-12-07T00:19:23;99497.31;;;2.79;82.64
75699;BME280;64313;51.018;13.742;2022-12-07T00:21:48;99496.34;;;2.80;82.19
75699;BME280;64313;51.018;13.742;2022-12-07T00:24:13;99488.44;;;2.80;82.49
75699;BME280;64313;51.018;13.742;2022-12-07T00:26:40;99491.06;;;2.80;82.44
75699;BME280;64313;51.018;13.742;2022-12-07T00:29:17;99476.06;;;2.81;82.27
75699;BME280;64313;51.018;13.742;2022-12-07T00:31:44;99479.53;;;2.81;82.11
75699;BME280;64313;51.018;13.742;2022-12-07T00:34:15;99478.56;;;2.83;82.55
75699;BME280;64313;51.018;13.742;2022-12-07T00:36:41;99480.53;;;2.80;82.21
75699;BME280;64313;51.018;13.742;2022-12-07T00:39:06;99483.00;;;2.82;81.93
75699;BME280;64313;51.018;13.742;2022-12-07T00:41:32;99481.03;;;2.84;82.11
75699;BME280;64313;51.018;13.742;2022-12-07T00:43:57;99468.66;;;2.85;81.28
75699;BME280;64313;51.018;13.742;2022-12-07T00:46:23;99472.97;;;2.86;81.20
75699;BME280;64313;51.018;13.742;2022-12-07T00:48:50;99467.50;;;2.87;81.53
75699;BME280;64313;51.018;13.742;2022-12-07T00:51:16;99469.31;;;2.87;81.47
75699;BME280;64313;51.018;13.742;2022-12-07T00:53:41;99468.00;;;2.83;81.64
75699;BME280;64313;51.018;13.742;2022-12-07T00:56:09;99475.91;;;2.83;81.59
75699;BME280;64313;51.018;13.742;2022-12-07T00:58:34;99463.88;;;2.80;81.93
75699;BME280;64313;51.018;13.742;2022-12-07T01:01:01;99465.66;;;2.79;81.95
75699;BME280;64313;51.018;13.742;2022-12-07T01:03:27;99467.47;;;2.79;81.55
75699;BME280;64313;51.018;13.742;2022-12-07T01:05:54;99461.50;;;2.77;81.90
75699;BME280;64313;51.018;13.742;2022-12-07T01:08:20;99468.81;;;2.83;81.69
75699;BME280;64313;51.018;13.742;2022-12-07T01:10:46;99465.66;;;2.79;81.77
75699;BME280;64313;51.018;13.742;2022-12-07T01:13:11;99469.16;;;2.80;81.64
75699;BME280;64313;51.018;13.742;2022-12-07T01:15:41;99470.78;;;2.81;82.00
75699;BME280;64313;51.018;13.742;2022-12-07T01:18:07;99469.66;;;2.84;81.67
75699;BME280;64313;51.018;13.742;2022-12-07T01:20:33;99467.16;;;2.82;81.56
75699;BME280;64313;51.018;13.742;2022-12-07T01:22:58;99466.31;;;2.81;81.83
75699;BME280;64313;51.018;13.742;2022-12-07T01:25:23;99466.31;;;2.81;81.95
75699;BME280;64313;51.018;13.742;2022-12-07T01:27:49;99467.16;;;2.82;81.89
75699;BME280;64313;51.018;13.742;2022-12-07T01:30:14;99460.91;;;2.83;81.62
75699;BME280;64313;51.018;13.742;2022-12-07T01:32:39;99457.44;;;2.83;81.78
75699;BME280;64313;51.018;13.742;2022-12-07T01:35:05;99459.91;;;2.84;81.92
75699;BME280;64313;51.018;13.742;2022-12-07T01:37:35;99466.69;;;2.87;82.29
75699;BME280;64313;51.018;13.742;2022-12-07T01:40:01;99466.88;;;2.85;82.10
75699;BME280;64313;51.018;13.742;2022-12-07T01:42:27;99456.31;;;2.85;81.73
75699;BME280;64313;51.018;13.742;2022-12-07T01:47:43;99454.81;;;2.83;82.01
75699;BME280;64313;51.018;13.742;2022-12-07T01:50:10;99454.50;;;2.86;81.70
75699;BME280;64313;51.018;13.742;2022-12-07T01:52:37;99452.81;;;2.85;81.54
75699;BME280;64313;51.018;13.742;2022-12-07T01:55:06;99449.34;;;2.84;81.33
75699;BME280;64313;51.018;13.742;2022-12-07T01:57:34;99462.53;;;2.84;81.56
75699;BME280;64313;51.018;13.742;2022-12-07T02:00:03;99456.59;;;2.82;81.91
75699;BME280;64313;51.018;13.742;2022-12-07T02:02:43;99455.78;;;2.81;81.45
75699;BME280;64313;51.018;13.742;2022-12-07T02:05:09;99460.91;;;2.83;81.81
75699;BME280;64313;51.018;13.742;2022-12-07T02:07:37;99457.44;;;2.83;81.47
75699;BME280;64313;51.018;13.742;2022-12-07T02:12:37;99452.78;;;2.76;81.57
75699;BME280;64313;51.018;13.742;2022-12-07T02:15:03;99453.09;;;2.73;81.72
75699;BME280;64313;51.018;13.742;2022-12-07T02:17:39;99452.41;;;2.71;81.52
75699;BME280;64313;51.018;13.742;2022-12-07T02:20:17;99445.81;;;2.67;81.98
75699;BME280;64313;51.018;13.742;2022-12-07T02:26:00;99448.72;;;2.64;81.80
75699;BME280;64313;51.018;13.742;2022-12-07T02:31:23;99448.22;;;2.60;81.57
75699;BME280;64313;51.018;13.742;2022-12-07T02:34:00;99465.19;;;2.58;81.69
75699;BME280;64313;51.018;13.742;2022-12-07T02:36:30;99450.50;;;2.55;81.76
75699;BME280;64313;51.018;13.742;2022-12-07T02:39:01;99445.38;;;2.54;82.22
75699;BME280;64313;51.018;13.742;2022-12-07T02:41:33;99449.00;;;2.53;81.83
75699;BME280;64313;51.018;13.742;2022-12-07T02:44:14;99442.91;;;2.52;82.02
75699;BME280;64313;51.018;13.742;2022-12-07T02:46:46;99437.44;;;2.54;81.79
75699;BME280;64313;51.018;13.742;2022-12-07T02:49:15;99428.03;;;2.51;81.70
75699;BME280;64313;51.018;13.742;2022-12-07T02:51:42;99429.84;;;2.51;81.71
75699;BME280;64313;51.018;13.742;2022-12-07T02:54:12;99421.13;;;2.50;81.82
75699;BME280;64313;51.018;13.742;2022-12-07T02:59:35;99413.53;;;2.47;81.95
75699;BME280;64313;51.018;13.742;2022-12-07T03:12:23;99413.66;;;2.46;81.49
75699;BME280;64313;51.018;13.742;2022-12-07T03:15:01;99411.03;;;2.46;81.83
75699;BME280;64313;51.018;13.742;2022-12-07T03:17:31;99414.47;;;2.46;81.93
75699;BME280;64313;51.018;13.742;2022-12-07T03:20:02;99411.69;;;2.48;81.71
75699;BME280;64313;51.018;13.742;2022-12-07T03:22:31;99399.47;;;2.47;81.51
75699;BME280;64313;51.018;13.742;2022-12-07T03:25:01;99399.47;;;2.47;81.36
75699;BME280;64313;51.018;13.742;2022-12-07T03:27:34;99396.03;;;2.46;81.50
75699;BME280;64313;51.018;13.742;2022-12-07T03:30:05;99394.38;;;2.45;81.67
75699;BME280;64313;51.018;13.742;2022-12-07T03:32:36;99395.50;;;2.43;81.56
75699;BME280;64313;51.018;13.742;2022-12-07T03:35:07;99390.25;;;2.43;81.82
75699;BME280;64313;51.018;13.742;2022-12-07T03:40:18;99401.75;;;2.42;81.61
75699;BME280;64313;51.018;13.742;2022-12-07T03:42:45;99389.56;;;2.41;81.28
75699;BME280;64313;51.018;13.742;2022-12-07T03:45:12;99388.56;;;2.42;81.00
75699;BME280;64313;51.018;13.742;2022-12-07T03:47:46;99395.66;;;2.41;81.47
75699;BME280;64313;51.018;13.742;2022-12-07T03:53:08;99383.47;;;2.40;81.19
75699;BME280;64313;51.018;13.742;2022-12-07T03:55:35;99386.78;;;2.42;80.71
75699;BME280;64313;51.018;13.742;2022-12-07T03:58:09;99380.81;;;2.40;80.95
75699;BME280;64313;51.018;13.742;2022-12-07T04:00:36;99381.78;;;2.39;80.56
75699;BME280;64313;51.018;13.742;2022-12-07T04:03:01;99377.50;;;2.38;80.92
75699;BME280;64313;51.018;13.742;2022-12-07T04:05:27;99376.50;;;2.39;80.47
75699;BME280;64313;51.018;13.742;2022-12-07T04:07:52;99382.78;;;2.38;80.29
75699;BME280;64313;51.018;13.742;2022-12-07T04:10:18;99372.09;;;2.40;80.41
75699;BME280;64313;51.018;13.742;2022-12-07T04:12:44;99374.06;;;2.37;80.36
75699;BME280;64313;51.018;13.742;2022-12-07T04:15:09;99361.19;;;2.34;80.00
75699;BME280;64313;51.018;13.742;2022-12-07T04:17:35;99372.56;;;2.35;79.86
75699;BME280;64313;51.018;13.742;2022-12-07T04:20:01;99353.56;;;2.31;79.99
75699;BME280;64313;51.018;13.742;2022-12-07T04:22:26;99350.78;;;2.33;80.04
75699;BME280;64313;51.018;13.742;2022-12-07T04:24:51;99352.41;;;2.34;79.26
75699;BME280;64313;51.018;13.742;2022-12-07T04:27:17;99343.84;;;2.32;79.72
75699;BME280;64313;51.018;13.742;2022-12-07T04:29:42;99345.00;;;2.29;79.64
75699;BME280;64313;51.018;13.742;2022-12-07T04:32:07;99352.22;;;2.27;79.63
75699;BME280;64313;51.018;13.742;2022-12-07T04:34:33;99350.28;;;2.29;79.59
75699;BME280;64313;51.018;13.742;2022-12-07T04:36:58;99342.81;;;2.25;79.10
75699;BME280;64313;51.018;13.742;2022-12-07T04:39:30;99344.47;;;2.26;78.94
75699;BME280;64313;51.018;13.742;2022-12-07T04:41:56;99336.88;;;2.23;79.60
75699;BME280;64313;51.018;13.742;2022-12-07T04:44:22;99327.13;;;2.23;79.25
75699;BME280;64313;51.018;13.742;2022-12-07T04:46:49;99326.47;;;2.21;78.86
75699;BME280;64313;51.018;13.742;2022-12-07T04:49:15;99322.00;;;2.22;79.14
75699;BME280;64313;51.018;13.742;2022-12-07T04:51:41;99311.78;;;2.19;79.33
75699;BME280;64313;51.018;13.742;2022-12-07T04:54:07;99304.88;;;2.17;79.56
75699;BME280;64313;51.018;13.742;2022-12-07T04:56:32;99309.59;;;2.14;79.11
75699;BME280;64313;51.018;13.742;2022-12-07T04:58:59;99315.19;;;2.11;79.29
75699;BME280;64313;51.018;13.742;2022-12-07T05:01:26;99308.78;;;2.13;79.54
75699;BME280;64313;51.018;13.742;2022-12-07T05:03:51;99303.50;;;2.13;79.58
75699;BME280;64313;51.018;13.742;2022-12-07T05:06:17;99302.00;;;2.11;79.38
75699;BME280;64313;51.018;13.742;2022-12-07T05:08:42;99301.03;;;2.12;78.17
75699;BME280;64313;51.018;13.742;2022-12-07T05:11:09;99299.56;;;2.09;79.27
75699;BME280;64313;51.018;13.742;2022-12-07T05:13:35;99299.69;;;2.08;79.11
75699;BME280;64313;51.018;13.742;2022-12-07T05:16:01;99302.19;;;2.09;78.90
75699;BME280;64313;51.018;13.742;2022-12-07T05:18:26;99299.69;;;2.08;78.71
75699;BME280;64313;51.018;13.742;2022-12-07T05:20:51;99295.56;;;2.05;78.91
75699;BME280;64313;51.018;13.742;2022-12-07T05:23:17;99292.91;;;2.05;79.04
75699;BME280;64313;51.018;13.742;2022-12-07T05:25:43;99290.59;;;2.02;78.33
75699;BME280;64313;51.018;13.742;2022-12-07T05:28:09;99289.78;;;2.02;78.70
75699;BME280;64313;51.018;13.742;2022-12-07T05:30:35;99293.56;;;1.99;78.81
75699;BME280;64313;51.018;13.742;2022-12-07T05:33:00;99295.34;;;1.99;79.11
75699;BME280;64313;51.018;13.742;2022-12-07T05:35:26;99302.09;;;2.01;78.51
75699;BME280;64313;51.018;13.742;2022-12-07T05:37:51;99295.88;;;2.02;78.75
75699;BME280;64313;51.018;13.742;2022-12-07T05:40:16;99293.25;;;2.02;78.80
75699;BME280;64313;51.018;13.742;2022-12-07T05:42:44;99285.84;;;2.06;78.64
75699;BME280;64313;51.018;13.742;2022-12-07T05:45:09;99287.34;;;2.08;78.82
75699;BME280;64313;51.018;13.742;2022-12-07T05:47:36;99281.25;;;2.08;78.72
75699;BME280;64313;51.018;13.742;2022-12-07T05:50:01;99280.25;;;2.09;78.48
75699;BME280;64313;51.018;13.742;2022-12-07T05:52:27;99273.84;;;2.11;78.30
75699;BME280;64313;51.018;13.742;2022-12-07T05:54:53;99260.81;;;2.10;78.65
75699;BME280;64313;51.018;13.742;2022-12-07T05:57:19;99258.19;;;2.10;78.88
75699;BME280;64313;51.018;13.742;2022-12-07T05:59:45;99267.25;;;2.07;78.59
75699;BME280;64313;51.018;13.742;2022-12-07T06:02:13;99270.69;;;2.08;78.63
75699;BME280;64313;51.018;13.742;2022-12-07T06:04:44;99266.91;;;2.10;78.80
75699;BME280;64313;51.018;13.742;2022-12-07T06:07:13;99275.66;;;2.11;78.66
75699;BME280;64313;51.018;13.742;2022-12-07T06:09:39;99269.56;;;2.10;77.80
75699;BME280;64313;51.018;13.742;2022-12-07T06:12:05;99266.91;;;2.10;78.79
75699;BME280;64313;51.018;13.742;2022-12-07T06:14:49;99267.75;;;2.11;78.78
75699;BME280;64313;51.018;13.742;2022-12-07T06:17:14;99269.25;;;2.13;78.77
75699;BME280;64313;51.018;13.742;2022-12-07T06:19:40;99261.31;;;2.13;78.93
75699;BME280;64313;51.018;13.742;2022-12-07T06:22:06;99262.81;;;2.16;78.55
75699;BME280;64313;51.018;13.742;2022-12-07T06:24:33;99260.88;;;2.18;78.32
75699;BME280;64313;51.018;13.742;2022-12-07T06:26:58;99259.88;;;2.19;78.56
75699;BME280;64313;51.018;13.742;2022-12-07T06:29:24;99257.41;;;2.17;78.65
75699;BME280;64313;51.018;13.742;2022-12-07T06:31:50;99252.13;;;2.17;78.90
75699;BME280;64313;51.018;13.742;2022-12-07T06:34:17;99250.19;;;2.20;79.09
75699;BME280;64313;51.018;13.742;2022-12-07T06:36:44;99251.00;;;2.20;78.70
75699;BME280;64313;51.018;13.742;2022-12-07T06:39:10;99260.53;;;2.21;78.40
75699;BME280;64313;51.018;13.742;2022-12-07T06:41:36;99250.69;;;2.23;78.14
75699;BME280;64313;51.018;13.742;2022-12-07T06:44:02;99262.03;;;2.24;78.93
75699;BME280;64313;51.018;13.742;2022-12-07T06:46:28;99257.59;;;2.24;79.05
75699;BME280;64313;51.018;13.742;2022-12-07T06:48:53;99255.63;;;2.26;79.31
75699;BME280;64313;51.018;13.742;2022-12-07T06:51:18;99254.50;;;2.29;79.36
75699;BME280;64313;51.018;13.742;2022-12-07T06:53:44;99259.09;;;2.27;79.62
75699;BME280;64313;51.018;13.742;2022-12-07T06:56:09;99251.69;;;2.30;79.75
75699;BME280;64313;51.018;13.742;2022-12-07T06:58:35;99255.34;;;2.29;79.58
75699;BME280;64313;51.018;13.742;2022-12-07T07:01:00;99257.78;;;2.31;79.96
75699;BME280;64313;51.018;13.742;2022-12-07T07:03:26;99249.75;;;2.32;79.69
75699;BME280;64313;51.018;13.742;2022-12-07T07:05:51;99243.47;;;2.33;80.11
75699;BME280;64313;51.018;13.742;2022-12-07T07:08:16;99251.25;;;2.35;79.96
75699;BME280;64313;51.018;13.742;2022-12-07T07:10:42;99251.06;;;2.36;80.42
75699;BME280;64313;51.018;13.742;2022-12-07T07:13:07;99255.38;;;2.37;81.01
75699;BME280;64313;51.018;13.742;2022-12-07T07:15:34;99248.28;;;2.38;80.89
75699;BME280;64313;51.018;13.742;2022-12-07T07:17:59;99258.69;;;2.40;80.67
75699;BME280;64313;51.018;13.742;2022-12-07T07:20:25;99258.00;;;2.37;81.72
75699;BME280;64313;51.018;13.742;2022-12-07T07:22:50;99259.16;;;2.35;81.47
75699;BME280;64313;51.018;13.742;2022-12-07T07:25:18;99264.25;;;2.36;81.35
75699;BME280;64313;51.018;13.742;2022-12-07T07:27:45;99261.94;;;2.33;81.70
75699;BME280;64313;51.018;13.742;2022-12-07T07:30:10;99266.38;;;2.33;81.80
75699;BME280;64313;51.018;13.742;2022-12-07T07:32:36;99264.75;;;2.32;81.93
75699;BME280;64313;51.018;13.742;2022-12-07T07:35:02;99272.81;;;2.30;82.63
75699;BME280;64313;51.018;13.742;2022-12-07T07:37:27;99263.25;;;2.29;83.06
75699;BME280;64313;51.018;13.742;2022-12-07T07:39:52;99269.50;;;2.28;82.86
75699;BME280;64313;51.018;13.742;2022-12-07T07:42:18;99267.00;;;2.27;82.42
75699;BME280;64313;51.018;13.742;2022-12-07T07:44:44;99273.13;;;2.27;83.25
75699;BME280;64313;51.018;13.742;2022-12-07T07:47:10;99275.09;;;2.25;83.35
75699;BME280;64313;51.018;13.742;2022-12-07T07:49:35;99273.25;;;2.26;83.03
75699;BME280;64313;51.018;13.742;2022-12-07T07:52:01;99258.94;;;2.28;83.00
75699;BME280;64313;51.018;13.742;2022-12-07T07:54:26;99274.75;;;2.28;82.92
75699;BME280;64313;51.018;13.742;2022-12-07T07:56:52;99278.06;;;2.30;83.49
75699;BME280;64313;51.018;13.742;2022-12-07T07:59:18;99274.44;;;2.31;83.39
75699;BME280;64313;51.018;13.742;2022-12-07T08:01:43;99290.13;;;2.33;83.52
75699;BME280;64313;51.018;13.742;2022-12-07T08:04:09;99280.38;;;2.33;83.54
75699;BME280;64313;51.018;13.742;2022-12-07T08:06:34;99287.34;;;2.34;83.90
75699;BME280;64313;51.018;13.742;2022-12-07T08:08:59;99271.19;;;2.37;83.86
75699;BME280;64313;51.018;13.742;2022-12-07T08:11:25;99285.69;;;2.42;84.01
75699;BME280;64313;51.018;13.742;2022-12-07T08:13:50;99285.69;;;2.42;83.88
75699;BME280;64313;51.018;13.742;2022-12-07T08:16:17;99280.13;;;2.45;83.53
75699;BME280;64313;51.018;13.742;2022-12-07T08:18:42;99283.41;;;2.47;83.61
75699;BME280;64313;51.018;13.742;2022-12-07T08:21:11;99286.06;;;2.47;83.83
75699;BME280;64313;51.018;13.742;2022-12-07T08:23:37;99276.19;;;2.49;83.97
75699;BME280;64313;51.018;13.742;2022-12-07T08:26:06;99276.84;;;2.51;83.96
75699;BME280;64313;51.018;13.742;2022-12-07T08:28:32;99271.91;;;2.56;83.53
75699;BME280;64313;51.018;13.742;2022-12-07T08:31:01;99270.94;;;2.57;83.55
75699;BME280;64313;51.018;13.742;2022-12-07T08:33:28;99268.13;;;2.58;83.30
75699;BME280;64313;51.018;13.742;2022-12-07T08:35:53;99268.81;;;2.60;83.79
75699;BME280;64313;51.018;13.742;2022-12-07T08:38:18;99267.53;;;2.65;83.00
75699;BME280;64313;51.018;13.742;2022-12-07T08:40:44;99276.06;;;2.67;83.42
75699;BME280;64313;51.018;13.742;2022-12-07T08:43:09;99273.63;;;2.65;83.18
75699;BME280;64313;51.018;13.742;2022-12-07T08:45:34;99276.75;;;2.69;83.43
75699;BME280;64313;51.018;13.742;2022-12-07T08:48:08;99271.31;;;2.70;83.61
75699;BME280;64313;51.018;13.742;2022-12-07T08:50:36;99278.91;;;2.73;83.49
75699;BME280;64313;51.018;13.742;2022-12-07T08:53:03;99279.59;;;2.75;83.53
75699;BME280;64313;51.018;13.742;2022-12-07T08:55:31;99289.81;;;2.78;83.69
75699;BME280;64313;51.018;13.742;2022-12-07T08:57:58;99287.69;;;2.82;83.06
75699;BME280;64313;51.018;13.742;2022-12-07T09:00:24;99283.88;;;2.85;82.49
75699;BME280;64313;51.018;13.742;2022-12-07T09:02:51;99275.69;;;2.88;82.93
75699;BME280;64313;51.018;13.742;2022-12-07T09:05:16;99288.38;;;2.92;82.16
75699;BME280;64313;51.018;13.742;2022-12-07T09:07:43;99286.41;;;2.94;82.39
75699;BME280;64313;51.018;13.742;2022-12-07T09:10:11;99284.44;;;2.96;82.21
75699;BME280;64313;51.018;13.742;2022-12-07T09:12:37;99292.69;;;3.01;82.30
75699;BME280;64313;51.018;13.742;2022-12-07T09:15:02;99291.22;;;3.07;82.47
75699;BME280;64313;51.018;13.742;2022-12-07T09:17:32;99289.91;;;3.11;82.10
75699;BME280;64313;51.018;13.742;2022-12-07T09:19:57;99291.25;;;3.15;82.38
75699;BME280;64313;51.018;13.742;2022-12-07T09:22:22;99288.28;;;3.18;81.94
75699;BME280;64313;51.018;13.742;2022-12-07T09:24:48;99293.22;;;3.21;81.77
75699;BME280;64313;51.018;13.742;2022-12-07T09:27:13;99291.25;;;3.23;81.20
75699;BME280;64313;51.018;13.742;2022-12-07T09:29:39;99283.34;;;3.23;81.13
75699;BME280;64313;51.018;13.742;2022-12-07T09:32:04;99291.59;;;3.29;81.03
75699;BME280;64313;51.018;13.742;2022-12-07T09:34:31;99293.25;;;3.30;81.11
75699;BME280;64313;51.018;13.742;2022-12-07T09:36:57;99295.59;;;3.33;80.91
75699;BME280;64313;51.018;13.742;2022-12-07T09:39:22;99291.78;;;3.35;81.19
75699;BME280;64313;51.018;13.742;2022-12-07T09:41:47;99295.41;;;3.42;80.48
75699;BME280;64313;51.018;13.742;2022-12-07T09:44:20;99288.13;;;3.44;80.12
75699;BME280;64313;51.018;13.742;2022-12-07T09:46:47;99284.69;;;3.44;80.38
75699;BME280;64313;51.018;13.742;2022-12-07T09:49:17;99283.69;;;3.45;79.83
75699;BME280;64313;51.018;13.742;2022-12-07T09:51:43;99287.00;;;3.47;79.78
75699;BME280;64313;51.018;13.742;2022-12-07T09:54:12;99286.66;;;3.50;80.11
75699;BME280;64313;51.018;13.742;2022-12-07T09:56:38;99279.41;;;3.52;80.07
75699;BME280;64313;51.018;13.742;2022-12-07T09:59:04;99277.91;;;3.58;80.08
75699;BME280;64313;51.018;13.742;2022-12-07T10:01:31;99271.81;;;3.65;80.04
75699;BME280;64313;51.018;13.742;2022-12-07T10:06:38;99268.50;;;3.72;79.08
75699;BME280;64313;51.018;13.742;2022-12-07T10:09:15;99263.69;;;3.75;79.05
75699;BME280;64313;51.018;13.742;2022-12-07T10:12:04;99261.72;;;3.77;79.12
75699;BME280;64313;51.018;13.742;2022-12-07T10:14:31;99255.94;;;3.82;79.42
75699;BME280;64313;51.018;13.742;2022-12-07T10:16:57;99258.91;;;3.87;79.10
75699;BME280;64313;51.018;13.742;2022-12-07T10:19:28;99260.91;;;3.93;78.89
75699;BME280;64313;51.018;13.742;2022-12-07T10:22:13;99263.00;;;3.98;79.00
75699;BME280;64313;51.018;13.742;2022-12-07T10:24:43;99253.41;;;4.05;78.81
75699;BME280;64313;51.018;13.742;2022-12-07T10:27:30;99250.13;;;4.11;78.55
75699;BME280;64313;51.018;13.742;2022-12-07T10:29:57;99255.88;;;4.15;78.63
75699;BME280;64313;51.018;13.742;2022-12-07T10:32:30;99254.22;;;4.22;78.13
75699;BME280;64313;51.018;13.742;2022-12-07T10:35:29;99249.59;;;4.24;78.40
75699;BME280;64313;51.018;13.742;2022-12-07T10:37:58;99259.66;;;4.28;78.08
75699;BME280;64313;51.018;13.742;2022-12-07T10:40:34;99258.66;;;4.29;78.00
75699;BME280;64313;51.018;13.742;2022-12-07T10:51:10;99248.22;;;4.36;77.75
75699;BME280;64313;51.018;13.742;2022-12-07T10:59:15;99243.41;;;4.40;76.92
75699;BME280;64313;51.018;13.742;2022-12-07T11:01:59;99245.22;;;4.39;77.22
75699;BME280;64313;51.018;13.742;2022-12-07T11:04:33;99230.16;;;4.40;77.29
75699;BME280;64313;51.018;13.742;2022-12-07T11:07:23;99234.44;;;4.41;77.27
75699;BME280;64313;51.018;13.742;2022-12-07T11:18:13;99218.72;;;4.47;77.75
75699;BME280;64313;51.018;13.742;2022-12-07T11:21:20;99217.91;;;4.47;77.66
75699;BME280;64313;51.018;13.742;2022-12-07T11:24:01;99217.72;;;4.48;77.31
75699;BME280;64313;51.018;13.742;2022-12-07T11:29:44;99217.72;;;4.48;77.51
75699;BME280;64313;51.018;13.742;2022-12-07T11:35:03;99224.19;;;4.46;77.81
75699;BME280;64313;51.018;13.742;2022-12-07T11:37:34;99223.34;;;4.45;78.03
75699;BME280;64313;51.018;13.742;2022-12-07T11:40:24;99222.53;;;4.45;78.55
75699;BME280;64313;51.018;13.742;2022-12-07T11:43:01;99221.56;;;4.38;79.06
75699;BME280;64313;51.018;13.742;2022-12-07T11:45:32;99222.44;;;4.30;79.20
75699;BME280;64313;51.018;13.742;2022-12-07T11:50:58;99218.34;;;4.19;79.91
75699;BME280;64313;51.018;13.742;2022-12-07T11:53:26;99216.19;;;4.15;80.09
75699;BME280;64313;51.018;13.742;2022-12-07T11:56:15;99217.22;;;4.14;79.96
75699;BME280;64313;51.018;13.742;2022-12-07T12:04:07;99207.13;;;4.09;80.61
75699;BME280;64313;51.018;13.742;2022-12-07T12:06:42;99207.47;;;4.06;82.17
75699;BME280;64313;51.018;13.742;2022-12-07T12:09:14;99209.28;;;4.05;81.98
75699;BME280;64313;51.018;13.742;2022-12-07T12:17:34;99196.56;;;4.09;81.39
75699;BME280;64313;51.018;13.742;2022-12-07T12:20:19;99201.50;;;4.12;81.30
75699;BME280;64313;51.018;13.742;2022-12-07T12:23:10;99198.03;;;4.11;81.10
75699;BME280;64313;51.018;13.742;2022-12-07T12:25:41;99199.50;;;4.14;80.92
75699;BME280;64313;51.018;13.742;2022-12-07T12:28:23;99194.69;;;4.18;80.54
75699;BME280;64313;51.018;13.742;2022-12-07T12:33:33;99208.28;;;4.15;80.82
75699;BME280;64313;51.018;13.742;2022-12-07T12:46:53;99207.31;;;3.99;80.98
75699;BME280;64313;51.018;13.742;2022-12-07T12:51:52;99199.09;;;3.86;80.89
75699;BME280;64313;51.018;13.742;2022-12-07T12:59:32;99201.59;;;3.71;81.59
75699;BME280;64313;51.018;13.742;2022-12-07T13:02:25;99203.75;;;3.67;81.89
75699;BME280;64313;51.018;13.742;2022-12-07T13:07:59;99195.19;;;3.65;82.06
75699;BME280;64313;51.018;13.742;2022-12-07T13:15:48;99193.50;;;3.64;82.31
75699;BME280;64313;51.018;13.742;2022-12-07T13:28:50;99191.88;;;3.63;82.89
75699;BME280;64313;51.018;13.742;2022-12-07T13:34:35;99193.69;;;3.63;83.72
75699;BME280;64313;51.018;13.742;2022-12-07T13:39:53;99186.06;;;3.60;83.76
75699;BME280;64313;51.018;13.742;2022-12-07T13:42:26;99190.53;;;3.59;83.63
75699;BME280;64313;51.018;13.742;2022-12-07T13:44:53;99183.28;;;3.61;83.44
75699;BME280;64313;51.018;13.742;2022-12-07T13:47:32;99186.75;;;3.54;83.84
75699;BME280;64313;51.018;13.742;2022-12-07T13:50:00;99187.09;;;3.59;83.39
75699;BME280;64313;51.018;13.742;2022-12-07T13:52:30;99193.34;;;3.50;82.97
75699;BME280;64313;51.018;13.742;2022-12-07T13:55:13;99190.56;;;3.43;82.97
75699;BME280;64313;51.018;13.742;2022-12-07T13:57:40;99199.66;;;3.40;82.69
75699;BME280;64313;51.018;13.742;2022-12-07T14:00:16;99195.88;;;3.43;82.88
75699;BME280;64313;51.018;13.742;2022-12-07T14:05:31;99201.47;;;3.32;83.18
75699;BME280;64313;51.018;13.742;2022-12-07T14:10:41;99197.00;;;3.32;83.02
75699;BME280;64313;51.018;13.742;2022-12-07T14:15:54;99193.19;;;3.35;83.11
75699;BME280;64313;51.018;13.742;2022-12-07T14:18:46;99187.75;;;3.36;83.48
75699;BME280;64313;51.018;13.742;2022-12-07T14:21:19;99196.34;;;3.38;83.39
75699;BME280;64313;51.018;13.742;2022-12-07T14:24:08;99193.72;;;3.38;83.46
75699;BME280;64313;51.018;13.742;2022-12-07T14:26:34;99196.34;;;3.38;83.61
75699;BME280;64313;51.018;13.742;2022-12-07T14:29:39;99188.09;;;3.41;83.53
75699;BME280;64313;51.018;13.742;2022-12-07T14:32:24;99185.94;;;3.45;83.85
75699;BME280;64313;51.018;13.742;2022-12-07T14:35:02;99187.41;;;3.47;83.70
75699;BME280;64313;51.018;13.742;2022-12-07T14:37:29;99180.16;;;3.50;83.40
75699;BME280;64313;51.018;13.742;2022-12-07T14:39:54;99175.06;;;3.48;83.71
75699;BME280;64313;51.018;13.742;2022-12-07T14:42:23;99177.34;;;3.51;83.61
75699;BME280;64313;51.018;13.742;2022-12-07T14:44:49;99175.38;;;3.53;83.29
75699;BME280;64313;51.018;13.742;2022-12-07T14:47:14;99175.38;;;3.53;83.44
75699;BME280;64313;51.018;13.742;2022-12-07T14:49:40;99174.38;;;3.54;83.25
75699;BME280;64313;51.018;13.742;2022-12-07T14:52:11;99168.75;;;3.57;82.79
75699;BME280;64313;51.018;13.742;2022-12-07T14:54:38;99177.50;;;3.58;82.82
75699;BME280;64313;51.018;13.742;2022-12-07T14:57:03;99175.69;;;3.58;82.13
75699;BME280;64313;51.018;13.742;2022-12-07T14:59:29;99177.69;;;3.56;82.69
75699;BME280;64313;51.018;13.742;2022-12-07T15:01:54;99182.63;;;3.59;82.30
75699;BME280;64313;51.018;13.742;2022-12-07T15:04:19;99183.94;;;3.55;82.55
75699;BME280;64313;51.018;13.742;2022-12-07T15:06:56;99188.06;;;3.58;82.49
75699;BME280;64313;51.018;13.742;2022-12-07T15:09:21;99180.13;;;3.58;82.23
75699;BME280;64313;51.018;13.742;2022-12-07T15:11:46;99181.13;;;3.57;81.96
75699;BME280;64313;51.018;13.742;2022-12-07T15:14:12;99180.97;;;3.58;82.19
75699;BME280;64313;51.018;13.742;2022-12-07T15:16:40;99180.31;;;3.56;82.22
75699;BME280;64313;51.018;13.742;2022-12-07T15:19:13;99190.88;;;3.56;82.40